Terminal Aerodrome Forecast
Issued by NWS

Home | Current Version | Previous Version | Text Only | Print | Product List | Glossary On
Versions: 1 2 3 4 5 6 7 8 9 10 11 12 13 14 15 16 17 18
000
FTUS46 KLOX 221740
TAFBUR
TAF
KBUR 221740Z 2218/2318 VRB06KT P6SM BKN025 BKN040
     FM222000 18007KT P6SM SCT025 BKN040
     FM222200 17012KT P6SM BKN050
     FM230300 19006KT P6SM BKN050
     FM231000 15005KT P6SM BKN025=

USA.gov is the U.S. government's official web portal to all federal, state and local government web resources and services.